sensor_id;sensor_type;location;lat;lon;timestamp;pressure;altitude;pressure_sealevel;temperature;humidity
83424;BME280;73355;49.044;8.686;2024-03-02T00:02:16;98465.31;;;7.79;68.32
83424;BME280;73355;49.044;8.686;2024-03-02T00:04:44;98470.38;;;7.77;68.30
83424;BME280;73355;49.044;8.686;2024-03-02T00:07:14;98472.66;;;7.78;68.53
83424;BME280;73355;49.044;8.686;2024-03-02T00:09:50;98468.78;;;7.79;68.70
83424;BME280;73355;49.044;8.686;2024-03-02T00:12:17;98467.59;;;7.80;68.27
83424;BME280;73355;49.044;8.686;2024-03-02T00:14:43;98470.28;;;7.80;68.38
83424;BME280;73355;49.044;8.686;2024-03-02T00:17:17;98467.25;;;7.78;68.35
83424;BME280;73355;49.044;8.686;2024-03-02T00:19:46;98460.66;;;7.79;68.60
83424;BME280;73355;49.044;8.686;2024-03-02T00:22:11;98462.53;;;7.82;68.48
83424;BME280;73355;49.044;8.686;2024-03-02T00:24:37;98457.47;;;7.84;68.41
83424;BME280;73355;49.044;8.686;2024-03-02T00:27:04;98459.75;;;7.86;68.09
83424;BME280;73355;49.044;8.686;2024-03-02T00:29:30;98455.09;;;7.86;68.50
83424;BME280;73355;49.044;8.686;2024-03-02T00:31:57;98452.75;;;7.88;68.37
83424;BME280;73355;49.044;8.686;2024-03-02T00:34:23;98451.19;;;7.87;68.36
83424;BME280;73355;49.044;8.686;2024-03-02T00:36:49;98449.75;;;7.83;68.20
83424;BME280;73355;49.044;8.686;2024-03-02T00:39:17;98449.06;;;7.79;67.93
83424;BME280;73355;49.044;8.686;2024-03-02T00:41:43;98456.47;;;7.75;68.20
83424;BME280;73355;49.044;8.686;2024-03-02T00:44:15;98452.25;;;7.74;68.24
83424;BME280;73355;49.044;8.686;2024-03-02T00:46:42;98462.72;;;7.72;68.60
83424;BME280;73355;49.044;8.686;2024-03-02T00:49:18;98458.06;;;7.72;68.06
83424;BME280;73355;49.044;8.686;2024-03-02T00:51:47;98461.56;;;7.73;68.24
83424;BME280;73355;49.044;8.686;2024-03-02T00:54:19;98460.41;;;7.70;68.29
83424;BME280;73355;49.044;8.686;2024-03-02T00:56:46;98456.63;;;7.68;68.32
83424;BME280;73355;49.044;8.686;2024-03-02T00:59:12;98460.91;;;7.65;68.45
83424;BME280;73355;49.044;8.686;2024-03-02T01:01:37;98453.53;;;7.66;68.16
83424;BME280;73355;49.044;8.686;2024-03-02T01:04:03;98458.56;;;7.67;68.48
83424;BME280;73355;49.044;8.686;2024-03-02T01:06:28;98461.66;;;7.66;68.46
83424;BME280;73355;49.044;8.686;2024-03-02T01:08:54;98457.50;;;7.61;68.19
83424;BME280;73355;49.044;8.686;2024-03-02T01:11:20;98459.56;;;7.54;68.13
83424;BME280;73355;49.044;8.686;2024-03-02T01:13:48;98461.69;;;7.42;68.01
83424;BME280;73355;49.044;8.686;2024-03-02T01:16:14;98455.97;;;7.37;68.18
83424;BME280;73355;49.044;8.686;2024-03-02T01:18:40;98457.59;;;7.34;68.30
83424;BME280;73355;49.044;8.686;2024-03-02T01:21:06;98467.69;;;7.30;68.37
83424;BME280;73355;49.044;8.686;2024-03-02T01:23:31;98466.09;;;7.33;68.38
83424;BME280;73355;49.044;8.686;2024-03-02T01:25:56;98468.75;;;7.36;68.38
83424;BME280;73355;49.044;8.686;2024-03-02T01:28:22;98465.63;;;7.38;68.47
83424;BME280;73355;49.044;8.686;2024-03-02T01:30:48;98467.56;;;7.37;68.27
83424;BME280;73355;49.044;8.686;2024-03-02T01:33:14;98464.09;;;7.37;68.67
83424;BME280;73355;49.044;8.686;2024-03-02T01:35:39;98457.09;;;7.39;68.63
83424;BME280;73355;49.044;8.686;2024-03-02T01:38:05;98462.09;;;7.41;68.67
83424;BME280;73355;49.044;8.686;2024-03-02T01:40:37;98462.84;;;7.41;68.10
83424;BME280;73355;49.044;8.686;2024-03-02T01:43:05;98460.63;;;7.36;68.51
83424;BME280;73355;49.044;8.686;2024-03-02T01:45:31;98454.50;;;7.32;68.51
83424;BME280;73355;49.044;8.686;2024-03-02T01:47:57;98456.03;;;7.33;68.75
83424;BME280;73355;49.044;8.686;2024-03-02T01:50:27;98450.19;;;7.35;68.55
83424;BME280;73355;49.044;8.686;2024-03-02T01:52:53;98442.09;;;7.35;68.86
83424;BME280;73355;49.044;8.686;2024-03-02T01:55:19;98450.56;;;7.37;68.38
83424;BME280;73355;49.044;8.686;2024-03-02T01:57:44;98446.31;;;7.36;68.69
83424;BME280;73355;49.044;8.686;2024-03-02T02:00:10;98450.19;;;7.35;68.70
83424;BME280;73355;49.044;8.686;2024-03-02T02:02:36;98443.31;;;7.30;68.73
83424;BME280;73355;49.044;8.686;2024-03-02T02:05:01;98443.78;;;7.25;69.02
83424;BME280;73355;49.044;8.686;2024-03-02T02:07:27;98441.56;;;7.20;69.03
83424;BME280;73355;49.044;8.686;2024-03-02T02:09:52;98433.50;;;7.17;69.32
83424;BME280;73355;49.044;8.686;2024-03-02T02:12:18;98442.72;;;7.19;69.37
83424;BME280;73355;49.044;8.686;2024-03-02T02:14:49;98444.28;;;7.20;69.25
83424;BME280;73355;49.044;8.686;2024-03-02T02:17:15;98436.16;;;7.20;69.08
83424;BME280;73355;49.044;8.686;2024-03-02T02:19:41;98429.59;;;7.18;69.38
83424;BME280;73355;49.044;8.686;2024-03-02T02:22:10;98425.72;;;7.19;69.13
83424;BME280;73355;49.044;8.686;2024-03-02T02:24:35;98428.88;;;7.17;69.06
83424;BME280;73355;49.044;8.686;2024-03-02T02:27:01;98427.75;;;7.15;69.49
83424;BME280;73355;49.044;8.686;2024-03-02T02:29:26;98430.84;;;7.13;69.31
83424;BME280;73355;49.044;8.686;2024-03-02T02:31:52;98428.56;;;7.12;69.38
83424;BME280;73355;49.044;8.686;2024-03-02T02:34:18;98420.03;;;7.13;69.33
83424;BME280;73355;49.044;8.686;2024-03-02T02:36:43;98426.19;;;7.14;69.13
83424;BME280;73355;49.044;8.686;2024-03-02T02:39:12;98426.59;;;7.12;69.29
83424;BME280;73355;49.044;8.686;2024-03-02T02:41:38;98426.69;;;7.09;68.96
83424;BME280;73355;49.044;8.686;2024-03-02T02:44:04;98421.66;;;7.07;69.51
83424;BME280;73355;49.044;8.686;2024-03-02T02:46:29;98419.78;;;7.04;69.03
83424;BME280;73355;49.044;8.686;2024-03-02T02:48:55;98407.50;;;6.99;68.84
83424;BME280;73355;49.044;8.686;2024-03-02T02:51:20;98401.75;;;6.97;69.09
83424;BME280;73355;49.044;8.686;2024-03-02T02:53:46;98404.50;;;6.94;69.49
83424;BME280;73355;49.044;8.686;2024-03-02T02:56:11;98399.50;;;6.92;69.56
83424;BME280;73355;49.044;8.686;2024-03-02T02:58:37;98399.50;;;6.92;69.55
83424;BME280;73355;49.044;8.686;2024-03-02T03:01:02;98395.63;;;6.93;69.34
83424;BME280;73355;49.044;8.686;2024-03-02T03:03:29;98402.19;;;6.92;69.52
83424;BME280;73355;49.044;8.686;2024-03-02T03:05:54;98402.19;;;6.92;69.27
83424;BME280;73355;49.044;8.686;2024-03-02T03:08:20;98405.69;;;6.93;69.32
83424;BME280;73355;49.044;8.686;2024-03-02T03:10:45;98404.91;;;6.92;69.58
83424;BME280;73355;49.044;8.686;2024-03-02T03:13:11;98400.28;;;6.93;69.30
83424;BME280;73355;49.044;8.686;2024-03-02T03:15:36;98396.03;;;6.92;69.75
83424;BME280;73355;49.044;8.686;2024-03-02T03:18:03;98403.75;;;6.93;69.80
83424;BME280;73355;49.044;8.686;2024-03-02T03:20:29;98404.06;;;6.95;69.37
83424;BME280;73355;49.044;8.686;2024-03-02T03:22:55;98402.56;;;6.94;68.98
83424;BME280;73355;49.044;8.686;2024-03-02T03:25:21;98404.16;;;6.92;69.25
83424;BME280;73355;49.044;8.686;2024-03-02T03:27:46;98408.84;;;6.88;69.22
83424;BME280;73355;49.044;8.686;2024-03-02T03:30:12;98403.16;;;6.82;68.84
83424;BME280;73355;49.044;8.686;2024-03-02T03:32:37;98405.13;;;6.78;69.15
83424;BME280;73355;49.044;8.686;2024-03-02T03:35:03;98405.53;;;6.77;68.62
83424;BME280;73355;49.044;8.686;2024-03-02T03:37:29;98395.50;;;6.77;68.63
83424;BME280;73355;49.044;8.686;2024-03-02T03:40:03;98398.25;;;6.74;69.00
83424;BME280;73355;49.044;8.686;2024-03-02T03:42:37;98397.53;;;6.70;69.14
83424;BME280;73355;49.044;8.686;2024-03-02T03:45:04;98392.19;;;6.66;69.30
83424;BME280;73355;49.044;8.686;2024-03-02T03:47:31;98389.13;;;6.64;69.48
83424;BME280;73355;49.044;8.686;2024-03-02T03:49:57;98392.28;;;6.59;69.30
83424;BME280;73355;49.044;8.686;2024-03-02T03:52:23;98401.19;;;6.56;69.59
83424;BME280;73355;49.044;8.686;2024-03-02T03:54:48;98397.38;;;6.53;69.57
83424;BME280;73355;49.044;8.686;2024-03-02T03:57:14;98394.72;;;6.50;69.72
83424;BME280;73355;49.044;8.686;2024-03-02T03:59:39;98399.03;;;6.47;69.81
83424;BME280;73355;49.044;8.686;2024-03-02T04:02:05;98394.06;;;6.42;69.55
83424;BME280;73355;49.044;8.686;2024-03-02T04:04:30;98395.69;;;6.36;69.75
83424;BME280;73355;49.044;8.686;2024-03-02T04:06:55;98393.47;;;6.31;70.25
83424;BME280;73355;49.044;8.686;2024-03-02T04:09:21;98389.22;;;6.30;70.19
83424;BME280;73355;49.044;8.686;2024-03-02T04:11:46;98386.97;;;6.25;70.10
83424;BME280;73355;49.044;8.686;2024-03-02T04:14:12;98388.94;;;6.21;70.22
83424;BME280;73355;49.044;8.686;2024-03-02T04:16:38;98389.75;;;6.18;70.30
83424;BME280;73355;49.044;8.686;2024-03-02T04:19:04;98387.13;;;6.14;70.98
83424;BME280;73355;49.044;8.686;2024-03-02T04:21:29;98399.44;;;6.15;70.58
83424;BME280;73355;49.044;8.686;2024-03-02T04:23:55;98390.91;;;6.20;71.00
83424;BME280;73355;49.044;8.686;2024-03-02T04:26:24;98395.09;;;6.25;70.87
83424;BME280;73355;49.044;8.686;2024-03-02T04:28:51;98394.63;;;6.30;70.86
83424;BME280;73355;49.044;8.686;2024-03-02T04:31:16;98393.03;;;6.33;71.34
83424;BME280;73355;49.044;8.686;2024-03-02T04:33:42;98391.53;;;6.32;71.21
83424;BME280;73355;49.044;8.686;2024-03-02T04:36:08;98396.97;;;6.28;71.36
83424;BME280;73355;49.044;8.686;2024-03-02T04:38:36;98398.88;;;6.28;71.37
83424;BME280;73355;49.044;8.686;2024-03-02T04:41:02;98400.78;;;6.31;71.83
83424;BME280;73355;49.044;8.686;2024-03-02T04:43:27;98398.75;;;6.38;71.66
83424;BME280;73355;49.044;8.686;2024-03-02T04:45:52;98398.25;;;6.47;71.76
83424;BME280;73355;49.044;8.686;2024-03-02T04:48:18;98397.78;;;6.52;72.19
83424;BME280;73355;49.044;8.686;2024-03-02T04:50:44;98389.63;;;6.55;72.39
83424;BME280;73355;49.044;8.686;2024-03-02T04:53:09;98393.47;;;6.58;71.92
83424;BME280;73355;49.044;8.686;2024-03-02T04:55:35;98384.94;;;6.59;71.84
83424;BME280;73355;49.044;8.686;2024-03-02T04:58:20;98388.13;;;6.54;71.80
83424;BME280;73355;49.044;8.686;2024-03-02T05:00:46;98398.50;;;6.56;71.97
83424;BME280;73355;49.044;8.686;2024-03-02T05:03:14;98398.09;;;6.57;72.02
83424;BME280;73355;49.044;8.686;2024-03-02T05:05:39;98402.28;;;6.62;71.92
83424;BME280;73355;49.044;8.686;2024-03-02T05:08:05;98409.53;;;6.69;71.97
83424;BME280;73355;49.044;8.686;2024-03-02T05:10:31;98406.75;;;6.72;72.04
83424;BME280;73355;49.044;8.686;2024-03-02T05:12:56;98412.88;;;6.76;71.56
83424;BME280;73355;49.044;8.686;2024-03-02T05:15:24;98411.28;;;6.79;71.31
83424;BME280;73355;49.044;8.686;2024-03-02T05:17:49;98414.38;;;6.81;71.48
83424;BME280;73355;49.044;8.686;2024-03-02T05:20:15;98413.59;;;6.80;71.56
83424;BME280;73355;49.044;8.686;2024-03-02T05:22:40;98420.53;;;6.81;71.78
83424;BME280;73355;49.044;8.686;2024-03-02T05:25:06;98428.66;;;6.81;71.78
83424;BME280;73355;49.044;8.686;2024-03-02T05:27:32;98433.66;;;6.83;71.80
83424;BME280;73355;49.044;8.686;2024-03-02T05:29:58;98432.13;;;6.82;71.72
83424;BME280;73355;49.044;8.686;2024-03-02T05:32:24;98434.44;;;6.83;71.66
83424;BME280;73355;49.044;8.686;2024-03-02T05:34:49;98436.31;;;6.86;71.45
83424;BME280;73355;49.044;8.686;2024-03-02T05:37:16;98435.47;;;6.89;71.42
83424;BME280;73355;49.044;8.686;2024-03-02T05:39:42;98433.91;;;6.92;71.77
83424;BME280;73355;49.044;8.686;2024-03-02T05:42:10;98435.13;;;6.87;71.05
83424;BME280;73355;49.044;8.686;2024-03-02T05:44:36;98444.94;;;6.78;70.94
83424;BME280;73355;49.044;8.686;2024-03-02T05:47:02;98440.03;;;6.69;70.85
83424;BME280;73355;49.044;8.686;2024-03-02T05:49:28;98433.53;;;6.63;71.14
83424;BME280;73355;49.044;8.686;2024-03-02T05:51:53;98437.09;;;6.60;71.02
83424;BME280;73355;49.044;8.686;2024-03-02T05:54:19;98432.84;;;6.59;70.99
83424;BME280;73355;49.044;8.686;2024-03-02T05:56:44;98430.16;;;6.55;70.77
83424;BME280;73355;49.044;8.686;2024-03-02T05:59:09;98433.38;;;6.47;70.82
83424;BME280;73355;49.044;8.686;2024-03-02T06:01:45;98426.22;;;6.33;70.73
83424;BME280;73355;49.044;8.686;2024-03-02T06:04:16;98430.66;;;6.20;70.83
83424;BME280;73355;49.044;8.686;2024-03-02T06:06:42;98438.03;;;6.16;70.72
83424;BME280;73355;49.044;8.686;2024-03-02T06:09:07;98436.91;;;6.13;71.03
83424;BME280;73355;49.044;8.686;2024-03-02T06:11:36;98439.28;;;6.08;71.09
83424;BME280;73355;49.044;8.686;2024-03-02T06:14:02;98443.16;;;6.07;71.53
83424;BME280;73355;49.044;8.686;2024-03-02T06:16:27;98440.06;;;6.08;71.89
83424;BME280;73355;49.044;8.686;2024-03-02T06:18:56;98435.78;;;6.11;71.88
83424;BME280;73355;49.044;8.686;2024-03-02T06:21:23;98439.63;;;6.13;72.08
83424;BME280;73355;49.044;8.686;2024-03-02T06:23:48;98441.09;;;6.18;72.13
83424;BME280;73355;49.044;8.686;2024-03-02T06:26:14;98440.31;;;6.17;71.95
83424;BME280;73355;49.044;8.686;2024-03-02T06:28:39;98437.25;;;6.15;71.88
83424;BME280;73355;49.044;8.686;2024-03-02T06:31:05;98436.50;;;6.15;71.43
83424;BME280;73355;49.044;8.686;2024-03-02T06:33:30;98437.72;;;6.10;71.38
83424;BME280;73355;49.044;8.686;2024-03-02T06:35:56;98437.31;;;6.12;71.68
83424;BME280;73355;49.044;8.686;2024-03-02T06:38:21;98438.06;;;6.12;71.62
83424;BME280;73355;49.044;8.686;2024-03-02T06:40:46;98426.94;;;6.07;71.19
83424;BME280;73355;49.044;8.686;2024-03-02T06:43:12;98434.34;;;6.03;71.60
83424;BME280;73355;49.044;8.686;2024-03-02T06:45:37;98432.81;;;6.02;71.64
83424;BME280;73355;49.044;8.686;2024-03-02T06:48:03;98442.44;;;6.03;72.25
83424;BME280;73355;49.044;8.686;2024-03-02T06:50:28;98445.88;;;6.07;72.54
83424;BME280;73355;49.044;8.686;2024-03-02T06:52:54;98443.09;;;6.10;72.90
83424;BME280;73355;49.044;8.686;2024-03-02T06:55:21;98448.50;;;6.14;72.73
83424;BME280;73355;49.044;8.686;2024-03-02T06:57:46;98446.91;;;6.16;72.26
83424;BME280;73355;49.044;8.686;2024-03-02T07:00:22;98451.13;;;6.17;73.00
83424;BME280;73355;49.044;8.686;2024-03-02T07:02:47;98462.31;;;6.19;72.53
83424;BME280;73355;49.044;8.686;2024-03-02T07:05:13;98458.78;;;6.22;73.24
83424;BME280;73355;49.044;8.686;2024-03-02T07:07:38;98453.75;;;6.25;72.82
83424;BME280;73355;49.044;8.686;2024-03-02T07:10:04;98457.25;;;6.21;72.95
83424;BME280;73355;49.044;8.686;2024-03-02T07:12:30;98463.03;;;6.23;73.37
83424;BME280;73355;49.044;8.686;2024-03-02T07:14:56;98468.03;;;6.25;73.15
83424;BME280;73355;49.044;8.686;2024-03-02T07:17:28;98457.94;;;6.29;73.33
83424;BME280;73355;49.044;8.686;2024-03-02T07:19:53;98461.00;;;6.31;72.58
83424;BME280;73355;49.044;8.686;2024-03-02T07:22:19;98460.25;;;6.31;72.69
83424;BME280;73355;49.044;8.686;2024-03-02T07:24:44;98461.00;;;6.31;73.26
83424;BME280;73355;49.044;8.686;2024-03-02T07:27:11;98454.47;;;6.29;72.76
83424;BME280;73355;49.044;8.686;2024-03-02T07:29:37;98458.66;;;6.33;73.11
83424;BME280;73355;49.044;8.686;2024-03-02T07:32:03;98456.25;;;6.39;73.10
83424;BME280;73355;49.044;8.686;2024-03-02T07:34:29;98451.53;;;6.46;72.96
83424;BME280;73355;49.044;8.686;2024-03-02T07:36:55;98456.84;;;6.53;72.48
83424;BME280;73355;49.044;8.686;2024-03-02T07:39:20;98454.41;;;6.62;72.44
83424;BME280;73355;49.044;8.686;2024-03-02T07:41:46;98465.03;;;6.77;72.29
83424;BME280;73355;49.044;8.686;2024-03-02T07:44:12;98466.75;;;6.90;71.77
83424;BME280;73355;49.044;8.686;2024-03-02T07:46:40;98469.97;;;7.09;71.76
83424;BME280;73355;49.044;8.686;2024-03-02T07:49:06;98459.69;;;7.23;71.34
83424;BME280;73355;49.044;8.686;2024-03-02T07:51:31;98462.56;;;7.36;71.49
83424;BME280;73355;49.044;8.686;2024-03-02T07:53:56;98462.75;;;7.48;71.26
83424;BME280;73355;49.044;8.686;2024-03-02T07:56:22;98464.56;;;7.55;71.00
83424;BME280;73355;49.044;8.686;2024-03-02T07:58:48;98467.94;;;7.63;70.51
83424;BME280;73355;49.044;8.686;2024-03-02T08:01:14;98467.28;;;7.75;70.20
83424;BME280;73355;49.044;8.686;2024-03-02T08:03:39;98474.00;;;7.90;70.05
83424;BME280;73355;49.044;8.686;2024-03-02T08:06:05;98470.25;;;8.04;69.63
83424;BME280;73355;49.044;8.686;2024-03-02T08:08:30;98467.19;;;8.21;69.43
83424;BME280;73355;49.044;8.686;2024-03-02T08:10:55;98470.34;;;8.40;69.06
83424;BME280;73355;49.044;8.686;2024-03-02T08:13:20;98467.63;;;8.59;68.60
83424;BME280;73355;49.044;8.686;2024-03-02T08:15:46;98470.69;;;8.78;68.00
83424;BME280;73355;49.044;8.686;2024-03-02T08:18:11;98463.00;;;8.92;67.08
83424;BME280;73355;49.044;8.686;2024-03-02T08:20:37;98468.09;;;9.06;66.77
83424;BME280;73355;49.044;8.686;2024-03-02T08:23:02;98456.16;;;9.20;66.35
83424;BME280;73355;49.044;8.686;2024-03-02T08:25:28;98462.34;;;9.37;65.98
83424;BME280;73355;49.044;8.686;2024-03-02T08:27:53;98454.09;;;9.57;65.55
83424;BME280;73355;49.044;8.686;2024-03-02T08:30:18;98452.53;;;9.72;65.46
83424;BME280;73355;49.044;8.686;2024-03-02T08:32:43;98447.38;;;9.90;65.11
83424;BME280;73355;49.044;8.686;2024-03-02T08:35:10;98453.53;;;10.07;64.45
83424;BME280;73355;49.044;8.686;2024-03-02T08:37:37;98450.13;;;10.19;63.93
83424;BME280;73355;49.044;8.686;2024-03-02T08:40:04;98446.56;;;10.34;62.95
83424;BME280;73355;49.044;8.686;2024-03-02T08:42:32;98448.53;;;10.47;62.42
83424;BME280;73355;49.044;8.686;2024-03-02T08:44:57;98444.31;;;10.58;61.66
83424;BME280;73355;49.044;8.686;2024-03-02T08:47:23;98445.81;;;10.72;61.53
83424;BME280;73355;49.044;8.686;2024-03-02T08:49:48;98448.56;;;10.85;60.90
83424;BME280;73355;49.044;8.686;2024-03-02T08:52:13;98442.56;;;11.02;60.66
83424;BME280;73355;49.044;8.686;2024-03-02T08:54:39;98447.31;;;11.24;60.63
83424;BME280;73355;49.044;8.686;2024-03-02T08:57:05;98441.28;;;11.41;59.86
83424;BME280;73355;49.044;8.686;2024-03-02T08:59:30;98437.00;;;11.53;59.55
83424;BME280;73355;49.044;8.686;2024-03-02T09:01:57;98428.03;;;11.65;59.45
83424;BME280;73355;49.044;8.686;2024-03-02T09:04:22;98437.94;;;11.84;60.02
83424;BME280;73355;49.044;8.686;2024-03-02T09:06:47;98435.63;;;12.05;60.09
83424;BME280;73355;49.044;8.686;2024-03-02T09:09:13;98435.44;;;12.21;59.31
83424;BME280;73355;49.044;8.686;2024-03-02T09:11:38;98431.72;;;12.36;58.22
83424;BME280;73355;49.044;8.686;2024-03-02T09:14:04;98430.41;;;12.41;56.89
83424;BME280;73355;49.044;8.686;2024-03-02T09:16:30;98436.84;;;12.56;57.25
83424;BME280;73355;49.044;8.686;2024-03-02T09:18:56;98430.28;;;12.75;57.71
83424;BME280;73355;49.044;8.686;2024-03-02T09:21:22;98426.38;;;12.95;57.62
83424;BME280;73355;49.044;8.686;2024-03-02T09:23:48;98420.66;;;13.11;56.63
83424;BME280;73355;49.044;8.686;2024-03-02T09:26:13;98423.63;;;13.26;56.07
83424;BME280;73355;49.044;8.686;2024-03-02T09:28:42;98414.81;;;13.40;56.33
83424;BME280;73355;49.044;8.686;2024-03-02T09:31:08;98416.97;;;13.54;56.48
83424;BME280;73355;49.044;8.686;2024-03-02T09:33:33;98416.84;;;13.67;56.40
83424;BME280;73355;49.044;8.686;2024-03-02T09:35:58;98416.06;;;13.84;55.38
83424;BME280;73355;49.044;8.686;2024-03-02T09:38:24;98418.19;;;13.98;54.04
83424;BME280;73355;49.044;8.686;2024-03-02T09:40:49;98419.84;;;14.05;53.48
83424;BME280;73355;49.044;8.686;2024-03-02T09:43:14;98419.22;;;14.19;53.50
83424;BME280;73355;49.044;8.686;2024-03-02T09:45:40;98422.69;;;14.38;53.32
83424;BME280;73355;49.044;8.686;2024-03-02T09:48:05;98422.53;;;14.51;52.14
83424;BME280;73355;49.044;8.686;2024-03-02T09:50:31;98416.84;;;14.63;51.99
83424;BME280;73355;49.044;8.686;2024-03-02T09:52:56;98408.91;;;14.74;51.21
83424;BME280;73355;49.044;8.686;2024-03-02T09:55:21;98407.16;;;14.86;51.21
83424;BME280;73355;49.044;8.686;2024-03-02T09:57:47;98406.28;;;15.04;51.23
83424;BME280;73355;49.044;8.686;2024-03-02T10:00:15;98405.19;;;15.10;49.96
83424;BME280;73355;49.044;8.686;2024-03-02T10:02:41;98413.25;;;15.14;49.89
83424;BME280;73355;49.044;8.686;2024-03-02T10:05:08;98402.69;;;15.21;49.71
83424;BME280;73355;49.044;8.686;2024-03-02T10:07:33;98398.84;;;15.28;49.54
83424;BME280;73355;49.044;8.686;2024-03-02T10:10:12;98390.97;;;15.45;50.13
83424;BME280;73355;49.044;8.686;2024-03-02T10:12:38;98399.53;;;15.61;49.68
83424;BME280;73355;49.044;8.686;2024-03-02T10:15:03;98397.03;;;15.73;48.59
83424;BME280;73355;49.044;8.686;2024-03-02T10:17:32;98401.44;;;15.94;48.61
83424;BME280;73355;49.044;8.686;2024-03-02T10:19:58;98402.38;;;16.20;48.50
83424;BME280;73355;49.044;8.686;2024-03-02T10:22:23;98396.13;;;16.49;48.29
83424;BME280;73355;49.044;8.686;2024-03-02T10:24:48;98397.03;;;16.75;48.14
83424;BME280;73355;49.044;8.686;2024-03-02T10:27:19;98391.59;;;16.96;46.71
83424;BME280;73355;49.044;8.686;2024-03-02T10:29:48;98384.50;;;16.89;45.70
83424;BME280;73355;49.044;8.686;2024-03-02T10:32:13;98384.81;;;16.91;45.43
83424;BME280;73355;49.044;8.686;2024-03-02T10:34:43;98384.53;;;17.09;45.60
83424;BME280;73355;49.044;8.686;2024-03-02T10:37:10;98387.03;;;17.27;44.58
83424;BME280;73355;49.044;8.686;2024-03-02T10:39:36;98386.00;;;17.45;44.15
83424;BME280;73355;49.044;8.686;2024-03-02T10:42:06;98377.41;;;17.58;44.26
83424;BME280;73355;49.044;8.686;2024-03-02T10:44:32;98375.75;;;17.66;43.78
83424;BME280;73355;49.044;8.686;2024-03-02T10:47:02;98372.22;;;17.86;43.85
83424;BME280;73355;49.044;8.686;2024-03-02T10:49:32;98372.59;;;17.99;44.02
83424;BME280;73355;49.044;8.686;2024-03-02T10:52:01;98375.94;;;18.08;43.11
83424;BME280;73355;49.044;8.686;2024-03-02T10:54:27;98374.28;;;18.16;43.83
83424;BME280;73355;49.044;8.686;2024-03-02T10:56:55;98357.84;;;18.28;43.93
83424;BME280;73355;49.044;8.686;2024-03-02T10:59:36;98364.25;;;18.45;42.04
83424;BME280;73355;49.044;8.686;2024-03-02T11:02:03;98356.97;;;18.47;41.14
83424;BME280;73355;49.044;8.686;2024-03-02T11:04:30;98354.50;;;18.49;41.75
83424;BME280;73355;49.044;8.686;2024-03-02T11:07:04;98345.31;;;18.58;39.72
83424;BME280;73355;49.044;8.686;2024-03-02T11:09:33;98342.78;;;18.54;38.52
83424;BME280;73355;49.044;8.686;2024-03-02T11:12:12;98347.44;;;18.43;38.62
83424;BME280;73355;49.044;8.686;2024-03-02T11:14:41;98340.19;;;18.45;38.70
83424;BME280;73355;49.044;8.686;2024-03-02T11:17:08;98337.69;;;18.47;38.40
83424;BME280;73355;49.044;8.686;2024-03-02T11:19:34;98333.09;;;18.65;38.42
83424;BME280;73355;49.044;8.686;2024-03-02T11:22:02;98326.84;;;18.70;37.59
83424;BME280;73355;49.044;8.686;2024-03-02T11:24:30;98319.81;;;18.69;36.99
83424;BME280;73355;49.044;8.686;2024-03-02T11:27:02;98316.66;;;18.87;37.19
83424;BME280;73355;49.044;8.686;2024-03-02T11:32:04;98307.59;;;19.34;36.99
83424;BME280;73355;49.044;8.686;2024-03-02T11:36:56;98303.34;;;19.45;36.10
83424;BME280;73355;49.044;8.686;2024-03-02T11:39:25;98307.63;;;19.40;36.44
83424;BME280;73355;49.044;8.686;2024-03-02T11:41:50;98294.63;;;19.52;36.96
83424;BME280;73355;49.044;8.686;2024-03-02T11:44:16;98300.69;;;19.78;37.05
83424;BME280;73355;49.044;8.686;2024-03-02T11:46:41;98300.47;;;20.04;36.93
83424;BME280;73355;49.044;8.686;2024-03-02T11:49:06;98300.22;;;20.13;35.78
83424;BME280;73355;49.044;8.686;2024-03-02T11:51:34;98287.41;;;20.15;35.63
83424;BME280;73355;49.044;8.686;2024-03-02T11:54:00;98288.16;;;20.21;35.84
83424;BME280;73355;49.044;8.686;2024-03-02T11:56:28;98282.13;;;20.34;37.03
83424;BME280;73355;49.044;8.686;2024-03-02T11:58:53;98276.59;;;20.45;37.00
83424;BME280;73355;49.044;8.686;2024-03-02T12:01:19;98279.59;;;20.47;36.45
83424;BME280;73355;49.044;8.686;2024-03-02T12:03:45;98270.84;;;20.43;36.99
83424;BME280;73355;49.044;8.686;2024-03-02T12:06:10;98266.28;;;20.46;36.56
83424;BME280;73355;49.044;8.686;2024-03-02T12:08:41;98272.09;;;20.42;36.91
83424;BME280;73355;49.044;8.686;2024-03-02T12:11:06;98257.97;;;20.51;37.24
83424;BME280;73355;49.044;8.686;2024-03-02T12:13:32;98261.47;;;20.57;36.80
83424;BME280;73355;49.044;8.686;2024-03-02T12:15:58;98265.28;;;20.49;35.67
83424;BME280;73355;49.044;8.686;2024-03-02T12:18:24;98264.28;;;20.24;34.78
83424;BME280;73355;49.044;8.686;2024-03-02T12:20:50;98261.03;;;20.14;35.76
83424;BME280;73355;49.044;8.686;2024-03-02T12:23:22;98256.75;;;20.30;35.20
83424;BME280;73355;49.044;8.686;2024-03-02T12:25:47;98253.44;;;20.59;36.21
83424;BME280;73355;49.044;8.686;2024-03-02T12:28:13;98253.09;;;20.85;36.61
83424;BME280;73355;49.044;8.686;2024-03-02T12:30:38;98251.78;;;20.97;36.18
83424;BME280;73355;49.044;8.686;2024-03-02T12:33:10;98250.22;;;21.13;35.39
83424;BME280;73355;49.044;8.686;2024-03-02T12:35:36;98248.41;;;21.27;35.14
83424;BME280;73355;49.044;8.686;2024-03-02T12:38:01;98239.09;;;21.30;35.79
83424;BME280;73355;49.044;8.686;2024-03-02T12:40:26;98237.03;;;21.36;36.20
83424;BME280;73355;49.044;8.686;2024-03-02T12:42:52;98236.31;;;21.35;35.93
83424;BME280;73355;49.044;8.686;2024-03-02T12:45:17;98237.28;;;21.38;35.95
83424;BME280;73355;49.044;8.686;2024-03-02T12:47:49;98233.50;;;21.41;35.78
83424;BME280;73355;49.044;8.686;2024-03-02T12:50:15;98228.97;;;21.38;35.50
83424;BME280;73355;49.044;8.686;2024-03-02T12:52:41;98232.34;;;21.14;35.73
83424;BME280;73355;49.044;8.686;2024-03-02T12:55:06;98229.97;;;20.88;35.77
83424;BME280;73355;49.044;8.686;2024-03-02T12:57:32;98225.91;;;20.95;36.28
83424;BME280;73355;49.044;8.686;2024-03-02T13:00:03;98221.28;;;21.20;35.68
83424;BME280;73355;49.044;8.686;2024-03-02T13:02:34;98219.88;;;21.43;35.87
83424;BME280;73355;49.044;8.686;2024-03-02T13:05:00;98218.28;;;21.53;34.35
83424;BME280;73355;49.044;8.686;2024-03-02T13:07:25;98214.59;;;21.45;34.30
83424;BME280;73355;49.044;8.686;2024-03-02T13:09:51;98219.84;;;21.49;34.79